Time,TemperatureF,DewpointF,PressureIn,WindDirection,WindDirectionDegrees,WindSpeedMPH,WindSpeedGustMPH,Humidity,HourlyPrecipIn,Conditions,Clouds,dailyrainin,SoftwareType,DateUTC
2013-01-09 00:00:00,26.6,24.8,30.20,West,280,1.0,1.0,93,0.00,,,0.00,Wunderground v.1.15,2013-01-09 06:00:00,
2013-01-09 00:10:00,26.5,24.2,30.21,West,280,0.0,0.0,91,0.00,,,0.00,Wunderground v.1.15,2013-01-09 06:10:00,
2013-01-09 00:20:00,26.4,24.4,30.21,SW,222,1.0,1.0,92,0.00,,,0.00,Wunderground v.1.15,2013-01-09 06:20:00,
2013-01-09 00:25:00,26.4,24.4,30.21,SSW,198,1.0,1.0,92,0.00,,,0.00,Wunderground v.1.15,2013-01-09 06:25:00,
2013-01-09 00:35:00,25.8,23.8,30.21,WSW,249,0.0,1.0,92,0.00,,,0.00,Wunderground v.1.15,2013-01-09 06:35:00,
2013-01-09 00:45:00,25.9,23.9,30.22,West,270,1.0,1.0,92,0.00,,,0.00,Wunderground v.1.15,2013-01-09 06:45:00,
2013-01-09 00:50:00,26.4,24.7,30.23,West,263,2.0,2.0,93,0.00,,,0.00,Wunderground v.1.15,2013-01-09 06:50:00,
2013-01-09 01:01:00,26.8,24.8,30.23,WNW,287,3.0,4.0,92,0.00,,,0.00,Wunderground v.1.15,2013-01-09 07:01:00,
2013-01-09 01:10:00,27.1,25.1,30.24,WNW,298,3.0,3.0,92,0.00,,,0.00,Wunderground v.1.15,2013-01-09 07:10:00,
2013-01-09 01:15:00,27.3,25.0,30.24,WNW,282,3.0,3.0,91,0.00,,,0.00,Wunderground v.1.15,2013-01-09 07:15:00,
2013-01-09 01:25:00,27.1,24.6,30.24,West,277,2.0,2.0,90,0.00,,,0.00,Wunderground v.1.15,2013-01-09 07:25:00,
2013-01-09 01:35:00,27.1,24.6,30.25,WNW,298,1.0,2.0,90,0.00,,,0.00,Wunderground v.1.15,2013-01-09 07:35:00,
2013-01-09 01:40:00,27.4,25.1,30.25,West,277,2.0,2.0,91,0.00,,,0.00,Wunderground v.1.15,2013-01-09 07:40:00,
2013-01-09 01:50:00,27.5,24.7,30.26,West,281,2.0,2.0,89,0.00,,,0.00,Wunderground v.1.15,2013-01-09 07:50:00,
2013-01-09 01:55:00,27.1,24.3,30.27,WNW,302,2.0,2.0,89,0.00,,,0.00,Wunderground v.1.15,2013-01-09 07:55:00,
2013-01-09 02:00:00,27.3,24.8,30.27,West,271,1.0,1.0,90,0.00,,,0.00,Wunderground v.1.15,2013-01-09 08:00:00,
2013-01-09 02:10:00,27.8,25.2,30.27,WNW,295,1.0,1.0,90,0.00,,,0.00,Wunderground v.1.15,2013-01-09 08:10:00,
2013-01-09 02:20:00,27.8,24.4,30.28,West,259,2.0,2.0,87,0.00,,,0.00,Wunderground v.1.15,2013-01-09 08:20:00,
2013-01-09 02:30:00,27.0,23.9,30.28,West,270,2.0,2.0,88,0.00,,,0.00,Wunderground v.1.15,2013-01-09 08:30:00,
2013-01-09 02:40:00,26.0,22.9,30.29,West,271,1.0,3.0,88,0.00,,,0.00,Wunderground v.1.15,2013-01-09 08:40:00,
2013-01-09 02:50:00,26.0,23.5,30.29,West,281,2.0,2.0,90,0.00,,,0.00,Wunderground v.1.15,2013-01-09 08:50:00,
2013-01-09 03:00:00,27.9,25.6,30.29,WNW,288,2.0,2.0,91,0.00,,,0.00,Wunderground v.1.15,2013-01-09 09:00:00,
2013-01-09 03:10:00,29.0,25.9,30.29,WNW,286,2.0,2.0,88,0.00,,,0.00,Wunderground v.1.15,2013-01-09 09:10:00,
2013-01-09 03:15:00,29.2,26.1,30.30,WNW,300,1.0,2.0,88,0.00,,,0.00,Wunderground v.1.15,2013-01-09 09:15:00,
2013-01-09 03:20:00,29.2,26.1,30.30,WNW,293,1.0,1.0,88,0.00,,,0.00,Wunderground v.1.15,2013-01-09 09:20:00,
2013-01-09 03:30:00,28.5,24.6,30.31,North,360,0.0,0.0,85,0.00,,,0.00,Wunderground v.1.15,2013-01-09 09:30:00,
2013-01-09 03:40:00,27.5,23.9,30.32,NNE,13,0.0,0.0,86,0.00,,,0.00,Wunderground v.1.15,2013-01-09 09:40:00,
2013-01-09 03:50:00,26.2,22.9,30.32,NNE,13,0.0,0.0,87,0.00,,,0.00,Wunderground v.1.15,2013-01-09 09:50:00,
2013-01-09 04:00:00,25.8,23.0,30.32,NNE,13,0.0,0.0,89,0.00,,,0.00,Wunderground v.1.15,2013-01-09 10:00:00,
2013-01-09 04:10:00,25.2,22.1,30.32,NNE,13,0.0,0.0,88,0.00,,,0.00,Wunderground v.1.15,2013-01-09 10:10:00,
2013-01-09 04:20:00,25.4,23.1,30.32,NNE,13,0.0,0.0,91,0.00,,,0.00,Wunderground v.1.15,2013-01-09 10:20:00,
2013-01-09 04:25:00,26.0,23.7,30.32,North,6,0.0,0.0,91,0.00,,,0.00,Wunderground v.1.15,2013-01-09 10:25:00,
2013-01-09 04:30:00,25.8,23.3,30.32,WNW,302,0.0,0.0,90,0.00,,,0.00,Wunderground v.1.15,2013-01-09 10:30:00,
2013-01-09 04:40:00,26.6,24.3,30.31,NNW,339,0.0,1.0,91,0.00,,,0.00,Wunderground v.1.15,2013-01-09 10:40:00,
2013-01-09 04:50:00,26.1,23.3,30.31,North,4,0.0,1.0,89,0.00,,,0.00,Wunderground v.1.15,2013-01-09 10:50:00,
2013-01-09 05:00:00,26.0,23.7,30.30,NNE,13,2.0,2.0,91,0.00,,,0.00,Wunderground v.1.15,2013-01-09 11:00:00,
2013-01-09 05:10:00,25.0,21.7,30.30,ENE,73,1.0,1.0,87,0.00,,,0.00,Wunderground v.1.15,2013-01-09 11:10:00,
2013-01-09 05:15:00,24.0,21.0,30.30,ENE,73,0.0,1.0,88,0.00,,,0.00,Wunderground v.1.15,2013-01-09 11:15:00,
2013-01-09 05:25:00,22.9,20.1,30.30,SE,141,0.0,2.0,89,0.00,,,0.00,Wunderground v.1.15,2013-01-09 11:25:00,
2013-01-09 05:35:00,20.4,17.4,30.30,SSE,163,2.0,2.0,88,0.00,,,0.00,Wunderground v.1.15,2013-01-09 11:35:00,
2013-01-09 05:45:00,18.0,14.8,30.30,South,172,1.0,2.0,87,0.00,,,0.00,Wunderground v.1.15,2013-01-09 11:45:00,
2013-01-09 05:55:00,17.5,15.1,30.31,South,183,2.0,3.0,90,0.00,,,0.00,Wunderground v.1.15,2013-01-09 11:55:00,
2013-01-09 06:00:00,17.5,15.1,30.31,South,182,1.0,1.0,90,0.00,,,0.00,Wunderground v.1.15,2013-01-09 12:00:00,
2013-01-09 06:10:00,18.7,16.5,30.31,SSE,153,3.0,3.0,91,0.00,,,0.00,Wunderground v.1.15,2013-01-09 12:10:00,
2013-01-09 06:20:00,18.7,16.5,30.31,SSE,154,1.0,1.0,91,0.00,,,0.00,Wunderground v.1.15,2013-01-09 12:20:00,
2013-01-09 06:30:00,19.2,17.3,30.32,West,262,2.0,2.0,92,0.00,,,0.00,Wunderground v.1.15,2013-01-09 12:30:00,
2013-01-09 06:40:00,20.6,19.1,30.33,SW,232,3.0,5.0,94,0.00,,,0.00,Wunderground v.1.15,2013-01-09 12:40:00,
2013-01-09 06:50:00,22.1,20.4,30.33,WNW,282,3.0,3.0,93,0.00,,,0.00,Wunderground v.1.15,2013-01-09 12:50:00,
2013-01-09 07:00:00,22.1,20.1,30.33,WNW,302,0.0,1.0,92,0.00,,,0.00,Wunderground v.1.15,2013-01-09 13:00:00,
2013-01-09 07:10:00,22.1,20.1,30.33,NNW,333,2.0,2.0,92,0.00,,,0.00,Wunderground v.1.15,2013-01-09 13:10:00,
2013-01-09 07:15:00,22.0,20.0,30.33,North,9,2.0,2.0,92,0.00,,,0.00,Wunderground v.1.15,2013-01-09 13:15:00,
2013-01-09 07:25:00,21.6,19.4,30.34,WNW,288,2.0,2.0,91,0.00,,,0.00,Wunderground v.1.15,2013-01-09 13:25:00,
2013-01-09 07:35:00,20.5,18.0,30.35,WSW,256,0.0,1.0,90,0.00,,,0.00,Wunderground v.1.15,2013-01-09 13:35:00,
2013-01-09 07:45:00,19.2,16.5,30.38,South,173,3.0,3.0,89,0.00,,,0.00,Wunderground v.1.15,2013-01-09 13:45:00,
2013-01-09 07:55:00,18.1,15.7,30.40,SE,145,4.0,4.0,90,0.00,,,0.00,Wunderground v.1.15,2013-01-09 13:55:00,
2013-01-09 08:00:00,18.0,15.6,30.40,SSW,208,5.0,5.0,90,0.00,,,0.00,Wunderground v.1.15,2013-01-09 14:00:00,
2013-01-09 08:10:00,20.0,18.6,30.41,SW,226,4.0,4.0,94,0.00,,,0.00,Wunderground v.1.15,2013-01-09 14:10:00,
2013-01-09 08:20:00,22.4,20.9,30.43,WNW,285,4.0,4.0,94,0.00,,,0.00,Wunderground v.1.15,2013-01-09 14:20:00,
2013-01-09 08:30:00,23.2,21.5,30.44,SW,222,4.0,5.0,93,0.00,,,0.00,Wunderground v.1.15,2013-01-09 14:30:00,
2013-01-09 08:40:00,24.7,22.4,30.47,WSW,238,8.0,14.0,91,0.00,,,0.00,Wunderground v.1.15,2013-01-09 14:40:00,
2013-01-09 08:50:00,26.2,23.4,30.46,WSW,255,7.0,7.0,89,0.00,,,0.00,Wunderground v.1.15,2013-01-09 14:50:00,
2013-01-09 09:00:00,26.4,23.3,30.46,West,266,2.0,2.0,88,0.00,,,0.00,Wunderground v.1.15,2013-01-09 15:00:00,
2013-01-09 09:10:00,26.6,23.3,30.48,SW,226,5.0,9.0,87,0.00,,,0.00,Wunderground v.1.15,2013-01-09 15:10:00,
2013-01-09 09:15:00,27.1,24.0,30.48,SSW,208,7.0,9.0,88,0.00,,,0.00,Wunderground v.1.15,2013-01-09 15:15:00,
2013-01-09 09:25:00,27.7,24.1,30.47,WSW,248,6.0,7.0,86,0.00,,,0.00,Wunderground v.1.15,2013-01-09 15:25:00,
2013-01-09 09:35:00,28.3,24.4,30.47,West,274,1.0,3.0,85,0.00,,,0.00,Wunderground v.1.15,2013-01-09 15:35:00,
2013-01-09 09:45:00,28.6,24.1,30.47,West,278,2.0,3.0,83,0.00,,,0.00,Wunderground v.1.15,2013-01-09 15:45:00,
2013-01-09 09:55:00,28.5,24.0,30.48,WSW,253,2.0,3.0,83,0.00,,,0.00,Wunderground v.1.15,2013-01-09 15:55:00,
2013-01-09 10:00:00,28.5,24.0,30.48,WNW,291,2.0,2.0,83,0.00,,,0.00,Wunderground v.1.15,2013-01-09 16:00:00,
2013-01-09 10:10:00,28.5,24.0,30.49,West,271,2.0,3.0,83,0.00,,,0.00,Wunderground v.1.15,2013-01-09 16:10:00,
2013-01-09 10:20:00,28.4,24.2,30.49,SW,228,2.0,2.0,84,0.00,,,0.00,Wunderground v.1.15,2013-01-09 16:20:00,
2013-01-09 10:30:00,29.3,25.1,30.49,South,190,1.0,1.0,84,0.00,,,0.00,Wunderground v.1.15,2013-01-09 16:30:00,
2013-01-09 10:40:00,30.4,25.9,30.48,WSW,238,1.0,1.0,83,0.00,,,0.00,Wunderground v.1.15,2013-01-09 16:40:00,
2013-01-09 10:50:00,31.6,26.1,30.48,SW,233,1.0,3.0,80,0.00,,,0.00,Wunderground v.1.15,2013-01-09 16:50:00,
2013-01-09 11:00:00,32.4,26.3,30.48,West,260,2.0,3.0,78,0.00,,,0.00,Wunderground v.1.15,2013-01-09 17:00:00,
2013-01-09 11:10:00,32.5,26.4,30.47,West,276,1.0,1.0,78,0.00,,,0.00,Wunderground v.1.15,2013-01-09 17:10:00,
2013-01-09 11:15:00,33.5,27.4,30.47,West,277,0.0,1.0,78,0.00,,,0.00,Wunderground v.1.15,2013-01-09 17:15:00,
2013-01-09 11:25:00,35.6,28.1,30.46,SW,221,0.0,1.0,74,0.00,,,0.00,Wunderground v.1.15,2013-01-09 17:25:00,
2013-01-09 11:35:00,36.9,29.4,30.46,South,169,0.0,1.0,74,0.00,,,0.00,Wunderground v.1.15,2013-01-09 17:35:00,
2013-01-09 11:45:00,37.0,28.5,30.45,SSE,158,1.0,2.0,71,0.00,,,0.00,Wunderground v.1.15,2013-01-09 17:45:00,
2013-01-09 11:55:00,35.5,27.7,30.45,SSE,152,1.0,2.0,73,0.00,,,0.00,Wunderground v.1.15,2013-01-09 17:55:00,
2013-01-09 12:00:00,35.0,27.5,30.45,SE,145,2.0,2.0,74,0.00,,,0.00,Wunderground v.1.15,2013-01-09 18:00:00,
2013-01-09 12:10:00,34.9,28.1,30.45,South,173,3.0,4.0,76,0.00,,,0.00,Wunderground v.1.15,2013-01-09 18:10:00,
2013-01-09 12:15:00,34.9,28.4,30.45,SSE,154,4.0,5.0,77,0.00,,,0.00,Wunderground v.1.15,2013-01-09 18:15:00,
2013-01-09 12:25:00,35.0,28.8,30.44,South,172,2.0,3.0,78,0.00,,,0.00,Wunderground v.1.15,2013-01-09 18:25:00,
2013-01-09 12:35:00,35.6,29.1,30.43,SSE,156,2.0,3.0,77,0.00,,,0.00,Wunderground v.1.15,2013-01-09 18:35:00,
2013-01-09 12:45:00,35.8,29.6,30.43,South,169,3.0,3.0,78,0.00,,,0.00,Wunderground v.1.15,2013-01-09 18:45:00,
2013-01-09 12:50:00,36.5,30.0,30.42,SSE,164,2.0,3.0,77,0.00,,,0.00,Wunderground v.1.15,2013-01-09 18:50:00,
2013-01-09 12:55:00,36.7,29.8,30.42,South,169,3.0,3.0,76,0.00,,,0.00,Wunderground v.1.15,2013-01-09 18:55:00,
2013-01-09 13:00:00,36.6,29.7,30.42,SSE,166,3.0,3.0,76,0.00,,,0.00,Wunderground v.1.15,2013-01-09 19:00:00,
2013-01-09 13:10:00,36.0,29.5,30.41,SSE,155,3.0,3.0,77,0.00,,,0.00,Wunderground v.1.15,2013-01-09 19:10:00,
2013-01-09 13:20:00,35.9,29.4,30.40,SSE,167,3.0,4.0,77,0.00,,,0.00,Wunderground v.1.15,2013-01-09 19:20:00,
2013-01-09 13:30:00,35.9,29.4,30.39,SSE,152,3.0,3.0,77,0.00,,,0.00,Wunderground v.1.15,2013-01-09 19:30:00,
2013-01-09 13:35:00,35.9,29.4,30.40,SSE,150,2.0,3.0,77,0.00,,,0.00,Wunderground v.1.15,2013-01-09 19:35:00,
2013-01-09 13:40:00,36.2,30.0,30.40,South,177,2.0,3.0,78,0.00,,,0.00,Wunderground v.1.15,2013-01-09 19:40:00,
2013-01-09 13:50:00,37.4,31.2,30.39,South,172,3.0,3.0,78,0.00,,,0.00,Wunderground v.1.15,2013-01-09 19:50:00,
2013-01-09 14:00:00,38.9,31.6,30.39,SSE,166,2.0,3.0,75,0.00,,,0.00,Wunderground v.1.15,2013-01-09 20:00:00,
2013-01-09 14:10:00,38.5,30.9,30.39,SSE,155,2.0,2.0,74,0.00,,,0.00,Wunderground v.1.15,2013-01-09 20:10:00,
2013-01-09 14:15:00,38.2,30.6,30.39,SE,145,2.0,2.0,74,0.00,,,0.00,Wunderground v.1.15,2013-01-09 20:15:00,
2013-01-09 14:25:00,37.9,30.7,30.39,SSE,148,2.0,3.0,75,0.00,,,0.00,Wunderground v.1.15,2013-01-09 20:25:00,
2013-01-09 14:35:00,37.6,30.4,30.39,SE,143,2.0,2.0,75,0.00,,,0.00,Wunderground v.1.15,2013-01-09 20:35:00,
2013-01-09 14:45:00,37.6,30.7,30.39,SE,135,2.0,2.0,76,0.00,,,0.00,Wunderground v.1.15,2013-01-09 20:45:00,
2013-01-09 14:55:00,38.8,31.6,30.39,SE,139,0.0,1.0,75,0.00,,,0.00,Wunderground v.1.15,2013-01-09 20:55:00,
2013-01-09 15:00:00,39.1,31.8,30.39,SE,140,1.0,1.0,75,0.00,,,0.00,Wunderground v.1.15,2013-01-09 21:00:00,
2013-01-09 15:10:00,39.0,31.4,30.39,SE,139,0.0,0.0,74,0.00,,,0.00,Wunderground v.1.15,2013-01-09 21:10:00,
2013-01-09 15:15:00,39.0,31.4,30.40,SE,139,0.0,0.0,74,0.00,,,0.00,Wunderground v.1.15,2013-01-09 21:15:00,
2013-01-09 15:25:00,38.4,31.2,30.40,SE,138,0.0,0.0,75,0.00,,,0.00,Wunderground v.1.15,2013-01-09 21:25:00,
2013-01-09 15:35:00,38.2,31.3,30.40,SE,133,0.0,0.0,76,0.00,,,0.00,Wunderground v.1.15,2013-01-09 21:35:00,
2013-01-09 15:45:00,38.8,31.6,30.39,SE,133,0.0,0.0,75,0.00,,,0.00,Wunderground v.1.15,2013-01-09 21:45:00,
2013-01-09 15:55:00,38.1,31.2,30.39,ENE,75,1.0,2.0,76,0.00,,,0.00,Wunderground v.1.15,2013-01-09 21:55:00,
2013-01-09 16:00:00,38.1,31.5,30.39,East,95,1.0,1.0,77,0.00,,,0.00,Wunderground v.1.15,2013-01-09 22:00:00,
2013-01-09 16:10:00,37.9,31.3,30.37,ENE,73,0.0,3.0,77,0.00,,,0.00,Wunderground v.1.15,2013-01-09 22:10:00,
2013-01-09 16:20:00,37.0,30.8,30.38,NE,55,2.0,3.0,78,0.00,,,0.00,Wunderground v.1.15,2013-01-09 22:20:00,
2013-01-09 16:30:00,36.7,31.1,30.38,ENE,78,1.0,1.0,80,0.00,,,0.00,Wunderground v.1.15,2013-01-09 22:30:00,
2013-01-09 16:40:00,36.9,31.0,30.38,ENE,77,0.0,0.0,79,0.00,,,0.00,Wunderground v.1.15,2013-01-09 22:40:00,
2013-01-09 16:50:00,36.6,30.7,30.37,SE,127,0.0,1.0,79,0.00,,,0.00,Wunderground v.1.15,2013-01-09 22:50:00,
2013-01-09 17:00:00,35.9,30.6,30.37,NE,51,2.0,4.0,81,0.00,,,0.00,Wunderground v.1.15,2013-01-09 23:00:00,
2013-01-09 17:10:00,35.5,29.9,30.38,SE,131,1.0,1.0,80,0.00,,,0.00,Wunderground v.1.15,2013-01-09 23:10:00,
2013-01-09 17:15:00,35.3,30.1,30.38,SE,129,0.0,1.0,81,0.00,,,0.00,Wunderground v.1.15,2013-01-09 23:15:00,
2013-01-09 17:25:00,34.5,29.3,30.38,SE,136,0.0,1.0,81,0.00,,,0.00,Wunderground v.1.15,2013-01-09 23:25:00,
2013-01-09 17:35:00,33.5,29.2,30.38,SE,136,1.0,1.0,84,0.00,,,0.00,Wunderground v.1.15,2013-01-09 23:35:00,
2013-01-09 17:45:00,33.1,28.5,30.38,SE,124,1.0,1.0,83,0.00,,,0.00,Wunderground v.1.15,2013-01-09 23:45:00,
2013-01-09 17:55:00,32.9,28.9,30.38,East,91,0.0,1.0,85,0.00,,,0.00,Wunderground v.1.15,2013-01-09 23:55:00,
2013-01-09 18:00:00,32.3,27.7,30.38,East,91,0.0,0.0,83,0.00,,,0.00,Wunderground v.1.15,2013-01-10 00:00:00,
2013-01-09 18:10:00,30.8,26.8,30.39,East,91,0.0,0.0,85,0.00,,,0.00,Wunderground v.1.15,2013-01-10 00:10:00,
2013-01-09 18:20:00,29.9,26.5,30.38,East,91,0.0,0.0,87,0.00,,,0.00,Wunderground v.1.15,2013-01-10 00:20:00,
2013-01-09 18:30:00,30.2,27.1,30.38,East,91,0.0,0.0,88,0.00,,,0.00,Wunderground v.1.15,2013-01-10 00:30:00,
2013-01-09 18:40:00,29.7,26.6,30.39,East,91,0.0,0.0,88,0.00,,,0.00,Wunderground v.1.15,2013-01-10 00:40:00,
2013-01-09 18:50:00,29.6,26.8,30.39,East,91,0.0,0.0,89,0.00,,,0.00,Wunderground v.1.15,2013-01-10 00:50:00,
2013-01-09 19:00:00,29.2,26.6,30.39,East,93,0.0,0.0,90,0.00,,,0.00,Wunderground v.1.15,2013-01-10 01:00:00,
2013-01-09 19:10:00,28.9,26.6,30.39,East,93,0.0,0.0,91,0.00,,,0.00,Wunderground v.1.15,2013-01-10 01:10:00,
2013-01-09 19:15:00,29.0,26.7,30.39,East,94,0.0,0.0,91,0.00,,,0.00,Wunderground v.1.15,2013-01-10 01:15:00,
2013-01-09 19:25:00,29.0,26.7,30.39,East,93,0.0,0.0,91,0.00,,,0.00,Wunderground v.1.15,2013-01-10 01:25:00,
2013-01-09 19:35:00,28.5,26.2,30.39,East,93,0.0,1.0,91,0.00,,,0.00,Wunderground v.1.15,2013-01-10 01:35:00,
2013-01-09 19:45:00,28.2,25.9,30.39,South,174,1.0,2.0,91,0.00,,,0.00,Wunderground v.1.15,2013-01-10 01:45:00,
2013-01-09 19:55:00,28.5,26.2,30.39,SSE,163,1.0,2.0,91,0.00,,,0.00,Wunderground v.1.15,2013-01-10 01:55:00,
2013-01-09 20:00:00,28.2,26.2,30.39,SSE,163,0.0,0.0,92,0.00,,,0.00,Wunderground v.1.15,2013-01-10 02:00:00,
2013-01-09 20:10:00,28.6,26.8,30.38,SSE,163,0.0,0.0,93,0.00,,,0.00,Wunderground v.1.15,2013-01-10 02:10:00,
2013-01-09 20:15:00,28.7,26.9,30.39,SSE,163,0.0,0.0,93,0.00,,,0.00,Wunderground v.1.15,2013-01-10 02:15:00,
2013-01-09 20:25:00,29.0,27.2,30.38,SSE,163,0.0,0.0,93,0.00,,,0.00,Wunderground v.1.15,2013-01-10 02:25:00,
2013-01-09 20:35:00,29.8,28.0,30.38,SSE,163,0.0,0.0,93,0.00,,,0.00,Wunderground v.1.15,2013-01-10 02:35:00,
2013-01-09 20:45:00,30.6,28.8,30.38,SSE,163,0.0,0.0,93,0.00,,,0.00,Wunderground v.1.15,2013-01-10 02:45:00,
2013-01-09 20:55:00,30.8,28.8,30.37,SSE,163,0.0,0.0,92,0.00,,,0.00,Wunderground v.1.15,2013-01-10 02:55:00,
2013-01-09 21:00:00,30.7,28.7,30.37,SSE,163,0.0,0.0,92,0.00,,,0.00,Wunderground v.1.15,2013-01-10 03:00:00,
2013-01-09 21:10:00,30.8,28.8,30.37,SE,135,0.0,0.0,92,0.00,,,0.00,Wunderground v.1.15,2013-01-10 03:10:00,
2013-01-09 21:20:00,31.4,29.6,30.37,SE,131,0.0,1.0,93,0.00,,,0.00,Wunderground v.1.15,2013-01-10 03:20:00,
2013-01-09 21:30:00,32.1,30.0,30.37,ESE,122,0.0,0.0,92,0.00,,,0.00,Wunderground v.1.15,2013-01-10 03:30:00,
2013-01-09 21:40:00,31.8,29.2,30.37,SE,124,0.0,0.0,90,0.00,,,0.00,Wunderground v.1.15,2013-01-10 03:40:00,
2013-01-09 21:45:00,31.6,29.3,30.37,SE,124,0.0,0.0,91,0.00,,,0.00,Wunderground v.1.15,2013-01-10 03:45:00,
2013-01-09 21:55:00,31.2,28.6,30.37,SE,125,0.0,0.0,90,0.00,,,0.00,Wunderground v.1.15,2013-01-10 03:55:00,
2013-01-09 22:00:00,30.8,28.2,30.37,SE,124,0.0,0.0,90,0.00,,,0.00,Wunderground v.1.15,2013-01-10 04:00:00,
2013-01-09 22:10:00,29.7,27.1,30.38,SE,124,0.0,0.0,90,0.00,,,0.00,Wunderground v.1.15,2013-01-10 04:10:00,
2013-01-09 22:20:00,29.0,26.4,30.38,SE,124,0.0,0.0,90,0.00,,,0.00,Wunderground v.1.15,2013-01-10 04:20:00,
2013-01-09 22:30:00,29.4,27.4,30.39,SE,124,0.0,0.0,92,0.00,,,0.00,Wunderground v.1.15,2013-01-10 04:30:00,
2013-01-09 22:40:00,29.3,27.3,30.39,SE,124,0.0,0.0,92,0.00,,,0.00,Wunderground v.1.15,2013-01-10 04:40:00,
2013-01-09 22:50:00,29.1,27.1,30.39,SE,125,0.0,0.0,92,0.00,,,0.00,Wunderground v.1.15,2013-01-10 04:50:00,
2013-01-09 23:01:00,28.6,26.6,30.39,SE,125,0.0,0.0,92,0.00,,,0.00,Wunderground v.1.15,2013-01-10 05:01:00,
2013-01-09 23:10:00,28.4,26.4,30.40,SE,139,0.0,0.0,92,0.00,,,0.00,Wunderground v.1.15,2013-01-10 05:10:00,
2013-01-09 23:15:00,28.3,26.3,30.39,SE,139,0.0,0.0,92,0.00,,,0.00,Wunderground v.1.15,2013-01-10 05:15:00,
2013-01-09 23:25:00,28.5,26.5,30.39,SE,145,0.0,0.0,92,0.00,,,0.00,Wunderground v.1.15,2013-01-10 05:25:00,
2013-01-09 23:35:00,29.0,27.0,30.38,SSE,148,0.0,1.0,92,0.00,,,0.00,Wunderground v.1.15,2013-01-10 05:35:00,
2013-01-09 23:45:00,29.2,27.2,30.38,ESE,118,0.0,1.0,92,0.00,,,0.00,Wunderground v.1.15,2013-01-10 05:45:00,
2013-01-09 23:55:00,29.1,26.8,30.38,SE,125,0.0,1.0,91,0.00,,,0.00,Wunderground v.1.15,2013-01-10 05:55:00,